Astoria Regional Airport Astoria US
ICAO: KAST
IATA: AST
Category: Medium
Scheduled Services: No

Elevation: 15 ft
TransAlt. 18000 ft.

Airport Communications:
ASOS:135.375
SEATTLE CNTR:124.2
AIR CG:38.18
MC MINNVILLE RDO:122.3
CTAF/UNICOM:122.8

KAST Zoom In..

If you have problems with the map follow the link
https://www.worldairports.se/pages/airport.php?
ICAO=KAST

Runways:

(A) RW 08 length 5795 ft width 100 ft
---- / hdg 77

(B) RW 13 length 4996 ft width 100 ft
---- / hdg 135

(C) RW 26 length 5795 ft width 100 ft
ILS 109.50 / hdg 257

(D) RW 31 length 4996 ft width 100 ft
---- / hdg 315

Location; KAST
Day. 14 / Time. 11.29 Zulu
* Altimeter: 30.29
* Temperature: 08° c. 46.4°f.
* Wind from: 120° Speed 04 kn.
Dewpoint: 06° c.
Visibility: 7 Statute Miles.
Clouds: Overcast 2900 ft.
Conditions: Light Rain.

KAST 141129Z AUTO 12004KT 7SM -RA OVC029 08/06 A3029 RMK AO2 P0000 T00780056


Wind From 120°
Speed 04 kn.

 
 
jpsmedia.com for Web Design worldairports.se 2018   terms of use